createdAt,value
2017-05-02T00:00:30.746Z,10.86
2017-05-02T00:02:57.572Z,8.90
2017-05-02T00:05:24.390Z,9.54
2017-05-02T00:07:51.243Z,9.90
2017-05-02T00:10:18.158Z,10.50
2017-05-02T00:12:44.982Z,9.02
2017-05-02T00:15:11.771Z,10.12
2017-05-02T00:17:38.579Z,8.80
2017-05-02T00:20:06.175Z,10.44
2017-05-02T00:22:32.998Z,13.04
2017-05-02T00:24:59.767Z,9.12
2017-05-02T00:27:27.373Z,9.14
2017-05-02T00:29:54.147Z,9.42
2017-05-02T00:32:21.726Z,8.70
2017-05-02T00:34:48.541Z,10.40
2017-05-02T00:37:15.339Z,13.00
2017-05-02T00:39:42.164Z,8.16
2017-05-02T00:42:08.938Z,9.62
2017-05-02T00:44:35.723Z,9.20
2017-05-02T00:47:03.287Z,9.88
2017-05-02T00:49:30.066Z,8.46
2017-05-02T00:51:56.843Z,9.70
2017-05-02T00:54:23.749Z,10.46
2017-05-02T00:56:50.561Z,11.20
2017-05-02T00:59:17.404Z,9.70
2017-05-02T01:01:44.234Z,9.74
2017-05-02T01:04:11.015Z,9.70
2017-05-02T01:06:37.786Z,10.16
2017-05-02T01:09:04.618Z,11.10
2017-05-02T01:11:31.449Z,10.34
2017-05-02T01:13:58.962Z,11.60
2017-05-02T01:16:25.781Z,10.24
2017-05-02T01:18:52.751Z,9.80
2017-05-02T01:21:20.347Z,11.28
2017-05-02T01:23:47.165Z,10.08
2017-05-02T01:26:13.950Z,10.20
2017-05-02T01:28:41.542Z,11.24
2017-05-02T01:31:08.321Z,10.62
2017-05-02T01:33:35.155Z,10.46
2017-05-02T01:36:02.686Z,10.54
2017-05-02T01:38:29.500Z,10.52
2017-05-02T01:40:56.315Z,12.24
2017-05-02T01:43:23.199Z,11.56
2017-05-02T01:45:50.742Z,11.20
2017-05-02T01:48:17.542Z,9.94
2017-05-02T01:50:44.364Z,10.74
2017-05-02T01:53:11.147Z,10.60
2017-05-02T01:55:37.944Z,10.24
2017-05-02T01:58:04.770Z,10.76
2017-05-02T02:00:32.323Z,13.60
2017-05-02T02:02:59.976Z,10.80
2017-05-02T02:05:26.778Z,17.00
2017-05-02T02:07:53.615Z,12.20
2017-05-02T02:10:21.195Z,14.42
2017-05-02T02:12:47.992Z,10.70
2017-05-02T02:15:15.575Z,11.66
2017-05-02T02:17:42.355Z,11.44
2017-05-02T02:20:09.135Z,11.78
2017-05-02T02:22:35.971Z,14.38
2017-05-02T02:25:02.750Z,11.90
2017-05-02T02:27:30.288Z,12.82
2017-05-02T02:29:57.846Z,13.70
2017-05-02T02:32:25.419Z,12.46
2017-05-02T02:34:52.224Z,17.94
2017-05-02T02:37:19.043Z,13.32
2017-05-02T02:39:46.611Z,13.74
2017-05-02T02:42:13.419Z,14.76
2017-05-02T02:44:40.941Z,13.54
2017-05-02T02:47:07.764Z,12.90
2017-05-02T02:49:34.544Z,11.92
2017-05-02T02:52:01.340Z,14.88
2017-05-02T02:54:28.961Z,13.00
2017-05-02T02:56:55.739Z,15.10
2017-05-02T02:59:22.542Z,13.34
2017-05-02T03:01:50.135Z,14.50
2017-05-02T03:04:16.914Z,12.86
2017-05-02T03:06:44.428Z,12.84
2017-05-02T03:09:11.239Z,13.62
2017-05-02T03:11:38.015Z,15.38
2017-05-02T03:14:05.594Z,14.86
2017-05-02T03:16:32.367Z,14.54
2017-05-02T03:18:59.140Z,13.80
2017-05-02T03:21:25.958Z,14.30
2017-05-02T03:23:52.751Z,14.68
2017-05-02T03:26:19.603Z,14.00
2017-05-02T03:28:47.507Z,14.92
2017-05-02T03:31:14.343Z,13.50
2017-05-02T03:33:41.120Z,12.54
2017-05-02T03:36:08.022Z,13.12
2017-05-02T03:38:34.795Z,13.12
2017-05-02T03:41:01.581Z,13.38
2017-05-02T03:43:29.167Z,14.26
2017-05-02T03:45:55.942Z,17.44
2017-05-02T03:48:22.776Z,14.46
2017-05-02T03:50:49.603Z,14.70
2017-05-02T03:53:16.394Z,13.92
2017-05-02T03:55:43.222Z,13.80
2017-05-02T03:58:10.010Z,13.88
2017-05-02T04:00:37.607Z,16.94
2017-05-02T04:03:04.520Z,13.70
2017-05-02T04:05:31.295Z,14.36
2017-05-02T04:07:58.127Z,16.06
2017-05-02T04:10:25.660Z,15.18
2017-05-02T04:12:52.446Z,14.72
2017-05-02T04:15:19.280Z,19.68
2017-05-02T04:17:46.063Z,14.90
2017-05-02T04:20:13.639Z,16.02
2017-05-02T04:22:40.412Z,16.02
2017-05-02T04:25:07.222Z,14.74
2017-05-02T04:27:34.056Z,15.28
2017-05-02T04:30:00.835Z,20.14
2017-05-02T04:32:27.715Z,17.68
2017-05-02T04:34:54.495Z,16.78
2017-05-02T04:37:21.291Z,15.84
2017-05-02T04:39:48.879Z,16.82
2017-05-02T04:42:15.658Z,17.82
2017-05-02T04:44:42.439Z,16.72
2017-05-02T04:47:09.247Z,18.32
2017-05-02T04:49:36.063Z,18.42
2017-05-02T04:52:03.583Z,16.68
2017-05-02T04:54:30.359Z,15.16
2017-05-02T04:56:58.379Z,15.68
2017-05-02T04:59:25.891Z,16.24
2017-05-02T05:01:52.747Z,16.82
2017-05-02T05:04:20.296Z,22.26
2017-05-02T05:06:47.838Z,18.90
2017-05-02T05:09:15.408Z,16.10
2017-05-02T05:11:42.207Z,20.68
2017-05-02T05:14:09.031Z,15.26
2017-05-02T05:16:36.318Z,18.40
2017-05-02T05:19:03.104Z,16.88
2017-05-02T05:21:30.828Z,15.74
2017-05-02T05:23:57.610Z,17.28
2017-05-02T05:26:24.394Z,17.82
2017-05-02T05:28:51.239Z,16.92
2017-05-02T05:31:18.782Z,15.62
2017-05-02T05:33:46.364Z,15.92
2017-05-02T05:36:13.178Z,17.34
2017-05-02T05:38:39.964Z,16.20
2017-05-02T05:41:06.783Z,18.20
2017-05-02T05:43:33.657Z,16.38
2017-05-02T05:46:00.463Z,15.72
2017-05-02T05:48:27.980Z,19.06
2017-05-02T05:50:54.811Z,18.66
2017-05-02T05:53:21.605Z,15.36
2017-05-02T05:55:48.423Z,17.72
2017-05-02T05:58:15.247Z,17.08
2017-05-02T06:00:42.126Z,19.34
2017-05-02T06:03:08.975Z,16.34
2017-05-02T06:05:35.746Z,16.18
2017-05-02T06:08:02.539Z,25.80
2017-05-02T06:10:30.139Z,16.66
2017-05-02T06:12:56.913Z,17.70
2017-05-02T06:15:24.432Z,18.50
2017-05-02T06:17:51.259Z,16.90
2017-05-02T06:20:18.098Z,16.70
2017-05-02T06:22:44.875Z,18.26
2017-05-02T06:25:11.711Z,15.08
2017-05-02T06:27:38.478Z,16.76
2017-05-02T06:30:05.248Z,15.80
2017-05-02T06:32:32.087Z,16.76
2017-05-02T06:34:58.903Z,18.30
2017-05-02T06:37:25.678Z,18.32
2017-05-02T06:39:52.530Z,19.04
2017-05-02T06:42:20.068Z,18.42
2017-05-02T06:44:46.859Z,17.14
2017-05-02T06:47:13.679Z,18.72
2017-05-02T06:49:40.519Z,18.20
2017-05-02T06:52:07.300Z,17.04
2017-05-02T06:54:34.075Z,18.84
2017-05-02T06:57:00.892Z,20.18
2017-05-02T06:59:27.703Z,22.76
2017-05-02T07:01:54.555Z,18.82
2017-05-02T07:04:21.366Z,19.32
2017-05-02T07:06:48.175Z,19.64
2017-05-02T07:09:15.015Z,18.42
2017-05-02T07:11:41.794Z,19.38
2017-05-02T07:14:08.575Z,19.34
2017-05-02T07:16:35.394Z,20.82
2017-05-02T07:19:02.171Z,21.18
2017-05-02T07:21:28.949Z,20.48
2017-05-02T07:23:55.824Z,23.88
2017-05-02T07:26:22.620Z,20.14
2017-05-02T07:28:49.419Z,21.34
2017-05-02T07:31:16.240Z,23.50
2017-05-02T07:33:43.020Z,20.46
2017-05-02T07:36:09.868Z,22.76
2017-05-02T07:38:36.639Z,20.74
2017-05-02T07:41:03.427Z,23.78
2017-05-02T07:43:30.237Z,25.34
2017-05-02T07:45:57.014Z,23.98
2017-05-02T07:48:23.844Z,23.62
2017-05-02T07:50:50.683Z,22.62
2017-05-02T07:53:17.490Z,23.16
2017-05-02T07:55:44.299Z,24.58
2017-05-02T07:58:11.867Z,22.58
2017-05-02T08:00:38.647Z,21.96
2017-05-02T08:03:05.417Z,25.94
2017-05-02T08:05:32.251Z,24.22
2017-05-02T08:07:59.027Z,24.08
2017-05-02T08:10:25.810Z,24.04
2017-05-02T08:12:52.655Z,26.56
2017-05-02T08:15:19.455Z,24.54
2017-05-02T08:17:46.287Z,25.86
2017-05-02T08:20:13.071Z,27.40
2017-05-02T08:22:39.855Z,23.80
2017-05-02T08:25:06.681Z,24.38
2017-05-02T08:27:33.460Z,26.36
2017-05-02T08:30:00.231Z,26.26
2017-05-02T08:32:27.051Z,26.40
2017-05-02T08:34:53.880Z,26.18
2017-05-02T08:37:20.751Z,28.44
2017-05-02T08:39:48.160Z,25.32
2017-05-02T08:42:14.939Z,26.70
2017-05-02T08:44:41.791Z,28.04
2017-05-02T08:47:09.328Z,25.62
2017-05-02T08:49:36.844Z,27.30
2017-05-02T08:52:03.672Z,28.56
2017-05-02T08:54:30.466Z,26.20
2017-05-02T08:56:57.243Z,25.56
2017-05-02T08:59:24.108Z,25.44
2017-05-02T09:01:50.916Z,25.28
2017-05-02T09:04:17.741Z,25.42
2017-05-02T09:06:45.292Z,23.04
2017-05-02T09:09:12.809Z,25.70
2017-05-02T09:11:39.635Z,19.62
2017-05-02T09:14:06.460Z,15.52
2017-05-02T09:16:33.234Z,9.86
2017-05-02T09:19:00.048Z,8.30
2017-05-02T09:21:27.573Z,13.02
2017-05-02T09:23:54.359Z,8.64
2017-05-02T09:26:21.204Z,8.14
2017-05-02T09:28:48.037Z,9.00
2017-05-02T09:31:14.866Z,9.82
2017-05-02T09:33:41.654Z,9.32
2017-05-02T09:36:08.443Z,8.84
2017-05-02T09:38:36.075Z,9.88
2017-05-02T09:41:02.842Z,10.52
2017-05-02T09:43:29.628Z,10.02
2017-05-02T09:45:56.448Z,11.18
2017-05-02T09:48:23.283Z,9.96
2017-05-02T09:50:50.094Z,13.48
2017-05-02T09:53:16.943Z,11.50
2017-05-02T09:55:43.728Z,12.02
2017-05-02T09:58:10.555Z,10.40
2017-05-02T10:00:37.331Z,11.10
2017-05-02T10:03:04.117Z,11.00
2017-05-02T10:05:30.964Z,10.22
2017-05-02T10:07:57.816Z,10.32
2017-05-02T10:10:24.598Z,8.80
2017-05-02T10:12:51.406Z,9.08
2017-05-02T10:15:18.247Z,10.14
2017-05-02T10:17:45.023Z,9.54
2017-05-02T10:20:11.847Z,9.12
2017-05-02T10:22:38.622Z,8.14
2017-05-02T10:25:05.435Z,7.50
2017-05-02T10:27:32.960Z,7.20
2017-05-02T10:29:59.768Z,8.00
2017-05-02T10:32:26.534Z,6.96
2017-05-02T10:34:53.376Z,6.42
2017-05-02T10:37:20.205Z,6.02
2017-05-02T10:39:47.021Z,5.94
2017-05-02T10:42:14.603Z,6.22
2017-05-02T10:44:41.379Z,6.16
2017-05-02T10:47:08.894Z,4.20
2017-05-02T10:49:36.136Z,4.04
2017-05-02T10:52:03.587Z,3.52
2017-05-02T10:54:30.367Z,3.42
2017-05-02T10:56:57.199Z,3.22
2017-05-02T10:59:23.996Z,2.40
2017-05-02T11:01:50.791Z,3.62
2017-05-02T11:04:17.672Z,3.00
2017-05-02T11:06:44.479Z,5.82
2017-05-02T11:09:12.011Z,2.74
2017-05-02T11:11:39.571Z,2.40
2017-05-02T11:14:07.099Z,2.26
2017-05-02T11:16:34.671Z,2.56
2017-05-02T11:19:01.494Z,2.50
2017-05-02T11:21:28.273Z,2.82
2017-05-02T11:23:55.051Z,2.54
2017-05-02T11:26:21.906Z,2.66
2017-05-02T11:28:48.721Z,2.12
2017-05-02T11:31:15.507Z,3.86
2017-05-02T11:33:42.335Z,2.40
2017-05-02T11:36:09.107Z,3.20
2017-05-02T11:38:35.884Z,2.74
2017-05-02T11:41:02.767Z,2.60
2017-05-02T11:43:29.534Z,2.42
2017-05-02T11:45:56.317Z,2.34
2017-05-02T11:48:23.260Z,1.92
2017-05-02T11:50:50.094Z,3.02
2017-05-02T11:53:16.885Z,2.60
2017-05-02T11:55:43.710Z,1.88
2017-05-02T11:58:10.492Z,2.84
2017-05-02T12:00:37.270Z,2.04
2017-05-02T12:03:04.103Z,2.40
2017-05-02T12:05:30.887Z,2.02
2017-05-02T12:07:57.676Z,1.88
2017-05-02T12:10:24.503Z,1.72
2017-05-02T12:12:51.301Z,1.74
2017-05-02T12:15:18.155Z,2.36
2017-05-02T12:17:44.931Z,1.70
2017-05-02T12:20:11.711Z,1.78
2017-05-02T12:22:38.534Z,1.20
2017-05-02T12:25:05.306Z,1.70
2017-05-02T12:27:32.129Z,1.98
2017-05-02T12:29:58.952Z,1.82
2017-05-02T12:32:25.732Z,2.76
2017-05-02T12:34:52.629Z,2.92
2017-05-02T12:37:20.192Z,1.42
2017-05-02T12:39:47.811Z,1.80
2017-05-02T12:42:14.664Z,1.32
2017-05-02T12:44:42.175Z,1.68
2017-05-02T12:47:08.946Z,1.40
2017-05-02T12:49:35.763Z,1.84
2017-05-02T12:52:03.275Z,3.70
2017-05-02T12:56:56.887Z,1.70
2017-05-02T12:59:23.696Z,1.88
2017-05-02T13:01:50.532Z,3.02
2017-05-02T13:04:17.325Z,2.44
2017-05-02T13:06:44.151Z,1.90
2017-05-02T13:09:10.975Z,1.62
2017-05-02T13:11:37.759Z,2.94
2017-05-02T13:14:04.539Z,1.76
2017-05-02T13:16:32.108Z,1.78
2017-05-02T13:18:58.903Z,1.42
2017-05-02T13:21:25.694Z,1.54
2017-05-02T13:23:52.565Z,1.46
2017-05-02T13:26:20.122Z,3.02
2017-05-02T13:28:47.651Z,1.30
2017-05-02T13:31:14.823Z,1.10
2017-05-02T13:33:41.607Z,4.06
2017-05-02T13:36:08.383Z,1.30
2017-05-02T13:38:35.211Z,1.58
2017-05-02T13:41:02.035Z,3.66
2017-05-02T13:43:28.820Z,1.66
2017-05-02T13:45:55.653Z,2.00
2017-05-02T13:48:22.479Z,1.88
2017-05-02T13:50:49.275Z,2.62
2017-05-02T13:53:16.101Z,2.18
2017-05-02T13:55:42.883Z,1.74
2017-05-02T13:58:10.456Z,1.82
2017-05-02T14:00:37.244Z,2.66
2017-05-02T14:03:04.023Z,2.08
2017-05-02T14:05:30.834Z,1.66
2017-05-02T14:07:57.620Z,1.78
2017-05-02T14:10:24.455Z,2.32
2017-05-02T14:12:52.011Z,5.56
2017-05-02T14:15:19.546Z,2.04
2017-05-02T14:17:46.399Z,2.24
2017-05-02T14:20:13.184Z,1.50
2017-05-02T14:22:39.978Z,1.50
2017-05-02T14:25:06.802Z,3.86
2017-05-02T14:27:33.583Z,2.00
2017-05-02T14:30:01.155Z,2.90
2017-05-02T14:32:27.999Z,1.50
2017-05-02T14:34:54.787Z,2.02
2017-05-02T14:37:22.324Z,2.08
2017-05-02T14:39:49.907Z,1.32
2017-05-02T14:42:16.784Z,1.04
2017-05-02T14:44:43.580Z,1.98
2017-05-02T14:47:10.359Z,1.60
2017-05-02T14:49:37.915Z,3.60
2017-05-02T14:52:05.451Z,1.64
2017-05-02T14:54:33.063Z,1.50
2017-05-02T14:56:59.848Z,1.26
2017-05-02T14:59:26.680Z,2.40
2017-05-02T15:01:54.255Z,1.62
2017-05-02T15:04:21.048Z,1.50
2017-05-02T15:06:47.886Z,1.40
2017-05-02T15:09:14.668Z,1.60
2017-05-02T15:11:41.447Z,1.32
2017-05-02T15:14:08.289Z,1.92
2017-05-02T15:16:35.069Z,1.42
2017-05-02T15:19:02.611Z,1.90
2017-05-02T15:21:29.435Z,2.36
2017-05-02T15:23:56.232Z,2.00
2017-05-02T15:26:23.028Z,2.12
2017-05-02T15:28:49.847Z,1.30
2017-05-02T15:31:16.658Z,1.20
2017-05-02T15:33:44.220Z,1.28
2017-05-02T15:36:11.051Z,1.20
2017-05-02T15:38:37.818Z,1.50
2017-05-02T15:41:04.622Z,1.38
2017-05-02T15:43:31.435Z,1.60
2017-05-02T15:45:58.235Z,1.36
2017-05-02T15:48:25.817Z,1.18
2017-05-02T15:50:52.650Z,4.92
2017-05-02T15:53:19.488Z,1.02
2017-05-02T15:55:46.263Z,2.40
2017-05-02T15:58:13.041Z,3.42
2017-05-02T16:00:39.864Z,1.38
2017-05-02T16:03:06.639Z,3.66
2017-05-02T16:05:33.468Z,2.24
2017-05-02T16:08:00.249Z,1.00
2017-05-02T16:10:27.022Z,1.24
2017-05-02T16:12:53.873Z,2.04
2017-05-02T16:15:20.655Z,1.40
2017-05-02T16:17:47.483Z,1.72
2017-05-02T16:20:14.260Z,3.10
2017-05-02T16:22:41.031Z,1.36
2017-05-02T16:25:07.862Z,1.30
2017-05-02T16:27:34.639Z,1.68
2017-05-02T16:30:02.154Z,1.66
2017-05-02T16:32:28.980Z,1.74
2017-05-02T16:34:55.771Z,3.56
2017-05-02T16:37:22.637Z,1.44
2017-05-02T16:39:49.467Z,2.36
2017-05-02T16:42:16.276Z,1.62
2017-05-02T16:44:43.067Z,2.94
2017-05-02T16:47:09.887Z,2.04
2017-05-02T16:49:36.664Z,1.32
2017-05-02T16:52:03.434Z,1.40
2017-05-02T16:54:30.244Z,4.00
2017-05-02T16:56:57.790Z,1.70
2017-05-02T16:59:25.380Z,1.58
2017-05-02T17:01:52.167Z,2.18
2017-05-02T17:04:19.691Z,3.98
2017-05-02T17:06:46.511Z,2.26
2017-05-02T17:09:13.287Z,1.96
2017-05-02T17:11:40.120Z,2.52
2017-05-02T17:14:06.899Z,1.80
2017-05-02T17:16:33.692Z,1.36
2017-05-02T17:19:00.544Z,1.96
2017-05-02T17:21:27.338Z,1.78
2017-05-02T17:23:54.151Z,2.42
2017-05-02T17:26:20.974Z,1.90
2017-05-02T17:28:47.757Z,1.54
2017-05-02T17:31:14.607Z,1.70
2017-05-02T17:33:41.378Z,1.54
2017-05-02T17:36:08.167Z,1.68
2017-05-02T17:38:35.732Z,2.12
2017-05-02T17:41:02.513Z,3.84
2017-05-02T17:43:29.379Z,2.86
2017-05-02T17:45:56.915Z,3.94
2017-05-02T17:48:24.505Z,1.50
2017-05-02T17:50:51.327Z,2.54
2017-05-02T17:53:18.107Z,1.40
2017-05-02T17:55:44.935Z,1.60
2017-05-02T17:58:11.714Z,1.94
2017-05-02T18:00:38.491Z,2.56
2017-05-02T18:03:05.315Z,2.56
2017-05-02T18:05:32.148Z,3.52
2017-05-02T18:07:58.958Z,2.30
2017-05-02T18:10:25.815Z,3.14
2017-05-02T18:12:52.642Z,2.92
2017-05-02T18:15:20.194Z,2.08
2017-05-02T18:17:47.708Z,3.60
2017-05-02T18:20:14.528Z,3.50
2017-05-02T18:22:41.334Z,2.26
2017-05-02T18:25:08.103Z,2.44
2017-05-02T18:27:34.923Z,2.76
2017-05-02T18:30:01.705Z,2.20
2017-05-02T18:32:28.543Z,2.76
2017-05-02T18:34:55.406Z,2.38
2017-05-02T18:37:22.190Z,2.54
2017-05-02T18:39:48.991Z,1.84
2017-05-02T18:42:16.531Z,3.34
2017-05-02T18:44:44.083Z,2.26
2017-05-02T18:47:11.648Z,4.42
2017-05-02T18:49:38.470Z,2.42
2017-05-02T18:52:05.264Z,3.30
2017-05-02T18:54:32.861Z,2.66
2017-05-02T18:56:59.687Z,3.90
2017-05-02T18:59:26.543Z,3.32
2017-05-02T19:01:53.361Z,2.72
2017-05-02T19:04:20.158Z,4.02
2017-05-02T19:06:47.030Z,3.10
2017-05-02T19:09:13.858Z,2.32
2017-05-02T19:11:40.669Z,2.60
2017-05-02T19:14:07.440Z,2.14
2017-05-02T19:16:35.006Z,3.04
2017-05-02T19:19:01.779Z,2.88
2017-05-02T19:21:28.559Z,2.94
2017-05-02T19:23:55.402Z,2.74
2017-05-02T19:26:22.252Z,2.74
2017-05-02T19:28:49.044Z,3.50
2017-05-02T19:31:15.820Z,5.62
2017-05-02T19:33:42.667Z,6.70
2017-05-02T19:36:09.464Z,4.24
2017-05-02T19:38:36.235Z,7.28
2017-05-02T19:41:03.808Z,7.20
2017-05-02T19:43:30.582Z,7.56
2017-05-02T19:45:57.391Z,7.38
2017-05-02T19:48:24.321Z,5.10
2017-05-02T19:50:51.114Z,6.16
2017-05-02T19:53:17.895Z,12.98
2017-05-02T19:55:44.723Z,8.42
2017-05-02T19:58:11.494Z,7.40
2017-05-02T20:00:38.276Z,4.52
2017-05-02T20:03:05.092Z,7.80
2017-05-02T20:05:31.872Z,7.06
2017-05-02T20:07:58.709Z,5.00
2017-05-02T20:10:25.503Z,4.30
2017-05-02T20:12:52.309Z,4.28
2017-05-02T20:15:19.123Z,4.60
2017-05-02T20:17:45.948Z,6.22
2017-05-02T20:20:12.719Z,5.16
2017-05-02T20:22:40.242Z,3.00
2017-05-02T20:25:07.071Z,4.92
2017-05-02T20:27:33.846Z,4.22
2017-05-02T20:30:00.627Z,5.06
2017-05-02T20:32:27.461Z,4.18
2017-05-02T20:34:54.289Z,5.60
2017-05-02T20:37:21.078Z,5.18
2017-05-02T20:39:47.906Z,5.86
2017-05-02T20:42:14.683Z,8.42
2017-05-02T20:44:42.210Z,3.78
2017-05-02T20:47:09.382Z,6.24
2017-05-02T20:49:36.161Z,3.88
2017-05-02T20:52:02.946Z,6.24
2017-05-02T20:54:29.771Z,5.96
2017-05-02T20:56:56.575Z,4.98
2017-05-02T20:59:24.120Z,6.70
2017-05-02T21:01:51.692Z,6.72
2017-05-02T21:04:18.464Z,5.12
2017-05-02T21:06:45.239Z,4.64
2017-05-02T21:09:12.046Z,5.76
2017-05-02T21:11:39.607Z,7.10
2017-05-02T21:14:07.123Z,4.68
2017-05-02T21:16:33.898Z,6.04
2017-05-02T21:19:00.735Z,8.20
2017-05-02T21:21:27.523Z,6.06
2017-05-02T21:23:55.070Z,3.92
2017-05-02T21:26:22.643Z,5.14
2017-05-02T21:28:49.424Z,5.14
2017-05-02T21:31:16.218Z,4.78
2017-05-02T21:33:43.047Z,4.60
2017-05-02T21:36:09.828Z,7.46
2017-05-02T21:38:37.347Z,7.16
2017-05-02T21:41:04.183Z,5.24
2017-05-02T21:43:30.955Z,6.70
2017-05-02T21:45:57.792Z,7.64
2017-05-02T21:48:24.698Z,7.50
2017-05-02T21:50:51.476Z,5.34
2017-05-02T21:53:18.260Z,5.94
2017-05-02T21:55:45.084Z,6.94
2017-05-02T21:58:11.867Z,7.32
2017-05-02T22:00:38.643Z,4.82
2017-05-02T22:03:05.456Z,5.02
2017-05-02T22:05:32.290Z,4.90
2017-05-02T22:07:59.063Z,6.58
2017-05-02T22:10:25.842Z,5.94
2017-05-02T22:12:52.720Z,5.48
2017-05-02T22:15:19.496Z,4.60
2017-05-02T22:17:46.277Z,4.48
2017-05-02T22:20:13.458Z,6.00
2017-05-02T22:22:40.970Z,4.92
2017-05-02T22:25:07.742Z,4.42
2017-05-02T22:27:34.564Z,5.04
2017-05-02T22:30:01.351Z,5.24
2017-05-02T22:32:28.187Z,6.00
2017-05-02T22:34:55.051Z,5.38
2017-05-02T22:37:21.895Z,8.30
2017-05-02T22:39:48.670Z,8.84
2017-05-02T22:42:15.453Z,9.58
2017-05-02T22:44:42.283Z,7.40
2017-05-02T22:47:09.063Z,5.98
2017-05-02T22:49:36.615Z,5.22
2017-05-02T22:52:04.167Z,7.50
2017-05-02T22:54:31.679Z,7.42
2017-05-02T22:56:58.499Z,7.08
2017-05-02T22:59:25.303Z,5.96
2017-05-02T23:01:52.135Z,7.70
2017-05-02T23:04:18.919Z,4.52
2017-05-02T23:06:46.435Z,4.42
2017-05-02T23:09:13.246Z,5.42
2017-05-02T23:11:40.063Z,6.00
2017-05-02T23:14:06.832Z,6.58
2017-05-02T23:16:34.348Z,4.94
2017-05-02T23:19:01.175Z,6.14
2017-05-02T23:21:27.939Z,6.76
2017-05-02T23:23:55.472Z,7.94
2017-05-02T23:26:22.301Z,6.90
2017-05-02T23:28:49.819Z,7.28
2017-05-02T23:31:16.599Z,8.44
2017-05-02T23:33:43.407Z,6.26
2017-05-02T23:36:10.975Z,6.62
2017-05-02T23:38:37.747Z,7.66
2017-05-02T23:41:04.543Z,6.56
2017-05-02T23:43:31.362Z,5.58
2017-05-02T23:45:58.154Z,5.14
2017-05-02T23:48:25.754Z,6.30
2017-05-02T23:50:52.576Z,5.30
2017-05-02T23:53:19.391Z,4.10
2017-05-02T23:55:46.247Z,5.04
2017-05-02T23:58:13.014Z,4.96
